Time;durP1;ratioP1;P1;durP2;ratioP2;P2;SDS_P1;SDS_P2;PMS_P1;PMS_P2;Temp;Humidity;BMP_temperature;BMP_pressure;BME280_temperature;BME280_humidity;BME280_pressure;Samples;Min_cycle;Max_cycle;Signal;HPM_P1;HPM_P2
2023/01/19 00:01:24;;;;;;;1.75;0.30;;;18.30;64.20;;;;;;4514259;31;20136;-68
2023/01/19 00:03:51;;;;;;;0.90;0.40;;;18.30;64.20;;;;;;4529740;31;20135;-68
2023/01/19 00:06:17;;;;;;;1.85;0.50;;;18.20;64.20;;;;;;4528232;31;20136;-67
2023/01/19 00:08:44;;;;;;;0.95;0.40;;;18.20;64.20;;;;;;4515538;31;20143;-68
2023/01/19 00:11:12;;;;;;;2.30;0.60;;;18.20;64.30;;;;;;4528532;31;20166;-66
2023/01/19 00:13:39;;;;;;;1.73;0.60;;;18.20;64.30;;;;;;4529470;31;20124;-68
2023/01/19 00:16:06;;;;;;;2.83;0.50;;;18.20;64.30;;;;;;4529638;31;20069;-67
2023/01/19 00:18:32;;;;;;;1.95;0.40;;;18.20;64.30;;;;;;4513871;31;20124;-67
2023/01/19 00:20:58;;;;;;;0.88;0.57;;;18.10;64.30;;;;;;4529700;31;20192;-67
2023/01/19 00:23:24;;;;;;;1.48;0.50;;;18.20;64.30;;;;;;4513755;31;20128;-67
2023/01/19 00:25:50;;;;;;;1.48;0.50;;;18.20;64.30;;;;;;4515514;31;20266;-67
2023/01/19 00:28:17;;;;;;;1.08;0.40;;;18.10;64.30;;;;;;4527542;31;20270;-68
2023/01/19 00:30:44;;;;;;;2.13;0.50;;;18.10;64.30;;;;;;4529173;31;20128;-68
2023/01/19 00:33:14;;;;;;;1.83;0.50;;;18.10;64.40;;;;;;4516328;31;20606;-67
2023/01/19 00:35:51;;;;;;;1.15;0.40;;;18.10;64.40;;;;;;4531331;31;20154;-67
2023/01/19 00:38:18;;;;;;;1.33;0.50;;;18.10;64.50;;;;;;4532640;31;20186;-67
2023/01/19 00:40:43;;;;;;;1.27;0.40;;;18.00;64.40;;;;;;4516602;31;20189;-67
2023/01/19 00:43:12;;;;;;;1.77;0.60;;;18.00;64.40;;;;;;4532544;31;20179;-68
2023/01/19 00:45:38;;;;;;;1.52;0.40;;;18.00;64.40;;;;;;4530410;31;20188;-67
2023/01/19 00:48:05;;;;;;;2.65;0.55;;;18.00;64.50;;;;;;4531817;31;20565;-67
2023/01/19 00:50:35;;;;;;;1.77;0.52;;;18.00;64.50;;;;;;4531143;31;20158;-67
2023/01/19 00:53:01;;;;;;;1.30;0.50;;;18.00;64.50;;;;;;4530947;31;20115;-67
2023/01/19 00:55:31;;;;;;;1.30;0.32;;;18.00;64.50;;;;;;4518080;31;20264;-67
2023/01/19 00:57:57;;;;;;;1.55;0.60;;;18.00;64.50;;;;;;4530959;31;20135;-67
2023/01/19 01:00:24;;;;;;;1.13;0.35;;;18.00;64.60;;;;;;4517370;31;20189;-67
2023/01/19 01:02:51;;;;;;;1.25;0.47;;;17.90;64.50;;;;;;4520356;31;20281;-66
2023/01/19 01:05:19;;;;;;;1.33;0.40;;;17.90;64.60;;;;;;4531567;31;20136;-67
2023/01/19 01:07:48;;;;;;;1.08;0.40;;;17.90;64.50;;;;;;4532011;31;20120;-66
2023/01/19 01:10:23;;;;;;;1.45;0.45;;;17.90;64.50;;;;;;4530830;31;20140;-67
2023/01/19 01:12:50;;;;;;;1.02;0.32;;;17.90;64.50;;;;;;4517528;31;20182;-67
2023/01/19 01:15:17;;;;;;;2.17;0.40;;;17.90;64.60;;;;;;4516457;31;20128;-67
2023/01/19 01:17:46;;;;;;;1.38;0.30;;;17.90;64.50;;;;;;4517537;31;20562;-67
2023/01/19 01:20:16;;;;;;;2.20;0.40;;;17.90;64.50;;;;;;4531433;31;20647;-67
2023/01/19 01:22:52;;;;;;;1.27;0.40;;;17.90;64.50;;;;;;4517254;31;20278;-67
2023/01/19 01:25:23;;;;;;;0.75;0.45;;;17.80;64.50;;;;;;4531752;31;20568;-67
2023/01/19 01:27:49;;;;;;;1.00;0.50;;;17.80;65.40;;;;;;4516103;31;20557;-67
2023/01/19 01:30:16;;;;;;;1.85;0.30;;;17.80;64.50;;;;;;4531597;31;20140;-67
2023/01/19 01:32:42;;;;;;;1.02;0.40;;;17.80;64.50;;;;;;4516510;31;20682;-67
2023/01/19 01:35:09;;;;;;;0.77;0.28;;;17.80;64.40;;;;;;4530249;31;20472;-67
2023/01/19 01:37:36;;;;;;;1.17;0.40;;;17.80;64.40;;;;;;4531598;31;20102;-67
2023/01/19 01:40:04;;;;;;;1.02;0.45;;;17.80;64.40;;;;;;4515678;31;20156;-67
2023/01/19 01:42:32;;;;;;;1.10;0.50;;;17.80;64.50;;;;;;4531787;31;20237;-67
2023/01/19 01:45:06;;;;;;;1.55;0.50;;;17.70;64.40;;;;;;4529460;31;20136;-67
2023/01/19 01:47:40;;;;;;;1.27;0.60;;;17.70;65.20;;;;;;4519480;31;20292;-67
2023/01/19 01:50:18;;;;;;;1.85;0.47;;;17.70;64.40;;;;;;4531072;31;20128;-67
2023/01/19 01:53:04;;;;;;;1.90;0.57;;;17.70;64.40;;;;;;4519587;31;20135;-67
2023/01/19 01:55:33;;;;;;;1.27;0.30;;;17.70;64.50;;;;;;4531246;31;20132;-67
2023/01/19 01:58:03;;;;;;;1.02;0.30;;;17.70;64.50;;;;;;4529984;31;20254;-67
2023/01/19 02:02:49;;;;;;;0.82;0.38;;;17.70;64.50;;;;;;4531088;31;20112;-67
2023/01/19 02:03:21;;;;;;;2.00;0.40;;;17.70;64.50;;;;;;4530246;31;20065;-66
2023/01/19 02:05:48;;;;;;;0.70;0.20;;;17.70;64.50;;;;;;4529899;31;20200;-67
2023/01/19 02:13:52;;;;;;;0.80;0.30;;;17.60;64.40;;;;;;4529490;31;20141;-67
2023/01/19 02:16:18;;;;;;;0.85;0.30;;;17.70;64.50;;;;;;4530840;31;20146;-67
2023/01/19 02:18:45;;;;;;;0.90;0.35;;;17.60;64.40;;;;;;4515365;31;20179;-67
2023/01/19 02:21:22;;;;;;;1.10;0.30;;;17.60;64.40;;;;;;4516827;31;20277;-67
2023/01/19 02:23:53;;;;;;;0.98;0.40;;;17.60;64.40;;;;;;4518045;31;20186;-67
2023/01/19 02:26:32;;;;;;;1.20;0.20;;;17.60;64.40;;;;;;4516293;31;20266;-67
2023/01/19 02:29:02;;;;;;;0.95;0.30;;;17.60;64.50;;;;;;4520806;31;20124;-66
2023/01/19 02:31:31;;;;;;;0.55;0.30;;;17.60;64.40;;;;;;4528316;31;20175;-67
2023/01/19 02:33:58;;;;;;;1.35;0.40;;;17.60;64.40;;;;;;4519999;31;20132;-67
2023/01/19 02:36:32;;;;;;;1.10;0.20;;;17.60;64.50;;;;;;4529281;31;20126;-67
2023/01/19 02:39:04;;;;;;;1.58;0.50;;;17.50;64.40;;;;;;4530670;31;20274;-67
2023/01/19 02:41:38;;;;;;;1.08;0.40;;;17.50;64.50;;;;;;4530281;31;20124;-67
2023/01/19 02:44:05;;;;;;;0.80;0.38;;;17.50;64.50;;;;;;4529352;31;20128;-67
2023/01/19 02:46:32;;;;;;;1.15;0.40;;;17.50;64.50;;;;;;4530755;31;20274;-67
2023/01/19 02:48:58;;;;;;;1.23;0.40;;;17.50;64.50;;;;;;4529012;31;20197;-67
2023/01/19 02:51:25;;;;;;;0.73;0.35;;;17.50;64.50;;;;;;4516237;31;20171;-67
2023/01/19 02:54:23;;;;;;;0.82;0.30;;;17.50;64.60;;;;;;4514694;31;20138;-67
2023/01/19 02:57:12;;;;;;;0.98;0.38;;;17.50;64.60;;;;;;4514899;31;20131;-67
2023/01/19 02:59:51;;;;;;;0.90;0.20;;;17.50;64.50;;;;;;4520942;31;20194;-67
2023/01/19 03:02:17;;;;;;;0.60;0.20;;;17.40;64.50;;;;;;4514252;31;20429;-67
2023/01/19 03:05:20;;;;;;;0.60;0.25;;;17.40;64.50;;;;;;4526236;31;20646;-67
2023/01/19 03:07:56;;;;;;;1.20;0.32;;;17.40;64.40;;;;;;4529202;31;20162;-68
2023/01/19 03:10:28;;;;;;;0.95;0.25;;;17.40;64.60;;;;;;4525168;31;20175;-67
2023/01/19 03:13:15;;;;;;;2.55;0.30;;;17.40;64.70;;;;;;4528421;31;20182;-68
2023/01/19 03:16:01;;;;;;;0.68;0.20;;;17.40;64.70;;;;;;4525746;31;20201;-67
2023/01/19 03:18:30;;;;;;;1.67;0.40;;;17.40;64.70;;;;;;4527035;31;20136;-67
2023/01/19 03:21:03;;;;;;;0.68;0.30;;;17.40;64.60;;;;;;4515152;31;20584;-67
2023/01/19 03:23:31;;;;;;;1.20;0.30;;;17.40;64.60;;;;;;4528471;31;20312;-67
2023/01/19 03:25:59;;;;;;;0.70;0.30;;;17.40;64.50;;;;;;4514940;31;20302;-67
2023/01/19 03:28:28;;;;;;;1.92;0.52;;;17.40;64.40;;;;;;4525817;31;20151;-67
2023/01/19 03:31:20;;;;;;;0.63;0.28;;;17.50;64.30;;;;;;4525058;31;20146;-67
2023/01/19 03:33:50;;;;;;;0.93;0.30;;;17.50;64.30;;;;;;4513330;31;20250;-67
2023/01/19 03:36:31;;;;;;;0.80;0.30;;;17.50;64.30;;;;;;4525708;31;20228;-67
2023/01/19 03:38:59;;;;;;;0.75;0.32;;;17.50;64.20;;;;;;4514223;31;20260;-67
2023/01/19 03:41:27;;;;;;;1.23;0.30;;;17.50;64.10;;;;;;4526908;31;20151;-67
2023/01/19 03:43:55;;;;;;;0.70;0.20;;;17.50;64.10;;;;;;4526780;31;20166;-67
2023/01/19 03:46:23;;;;;;;0.80;0.28;;;17.50;64.00;;;;;;4526148;31;20182;-66
2023/01/19 03:48:51;;;;;;;0.98;0.25;;;17.50;63.90;;;;;;4512474;31;20132;-67
2023/01/19 03:51:18;;;;;;;0.10;0.10;;;17.50;63.90;;;;;;4527147;31;20143;-67
2023/01/19 03:53:45;;;;;;;0.22;0.20;;;17.50;63.80;;;;;;4523100;31;20129;-67
2023/01/19 03:56:20;;;;;;;1.25;0.30;;;17.60;63.80;;;;;;4524754;31;20138;-67
2023/01/19 03:58:46;;;;;;;0.47;0.20;;;17.50;63.70;;;;;;4524633;31;20231;-66
2023/01/19 04:01:13;;;;;;;0.30;0.10;;;17.60;63.70;;;;;;4526840;31;20184;-69
2023/01/19 04:03:40;;;;;;;1.00;0.30;;;17.60;63.70;;;;;;4527461;31;20158;-69
2023/01/19 04:06:07;;;;;;;0.30;0.20;;;17.60;63.70;;;;;;4512917;31;20615;-68
2023/01/19 04:08:42;;;;;;;0.40;0.10;;;17.60;63.60;;;;;;4517098;31;20163;-69
2023/01/19 04:11:08;;;;;;;0.80;0.40;;;17.60;63.60;;;;;;4529423;31;20123;-69
2023/01/19 04:13:35;;;;;;;0.90;0.28;;;17.60;63.70;;;;;;4517529;31;20150;-70
2023/01/19 04:16:01;;;;;;;0.45;0.30;;;17.60;63.70;;;;;;4532039;31;20084;-69
2023/01/19 04:18:29;;;;;;;0.82;0.25;;;17.60;63.70;;;;;;4528742;31;20140;-69
2023/01/19 04:20:58;;;;;;;0.77;0.20;;;17.60;63.70;;;;;;4528807;31;20538;-69
2023/01/19 04:23:24;;;;;;;0.20;0.20;;;17.60;63.70;;;;;;4515735;31;20124;-68
2023/01/19 04:25:59;;;;;;;0.20;0.20;;;17.60;63.70;;;;;;4530813;31;20202;-68
2023/01/19 04:28:26;;;;;;;0.50;0.20;;;17.60;63.70;;;;;;4530429;31;20189;-68
2023/01/19 04:30:52;;;;;;;0.75;0.30;;;17.60;63.70;;;;;;4529825;31;20737;-68
2023/01/19 04:33:19;;;;;;;0.40;0.20;;;17.60;63.70;;;;;;4531669;31;20088;-69
2023/01/19 04:35:46;;;;;;;0.50;0.20;;;17.60;63.70;;;;;;4516406;31;20673;-68
2023/01/19 04:38:12;;;;;;;1.40;0.38;;;17.60;63.70;;;;;;4518296;31;20564;-68
2023/01/19 04:40:38;;;;;;;2.72;0.20;;;17.60;63.80;;;;;;4530394;31;20132;-68
2023/01/19 04:43:04;;;;;;;0.50;0.20;;;17.60;63.60;;;;;;4518603;31;20128;-68
2023/01/19 04:45:31;;;;;;;1.20;0.38;;;17.60;63.60;;;;;;4531300;31;20254;-68
2023/01/19 04:47:57;;;;;;;0.82;0.40;;;17.60;63.60;;;;;;4518553;31;20560;-68
2023/01/19 04:50:23;;;;;;;0.30;0.15;;;17.60;63.60;;;;;;4530304;31;20549;-68
2023/01/19 04:52:49;;;;;;;0.32;0.10;;;17.60;63.60;;;;;;4514831;31;20277;-68
2023/01/19 04:55:16;;;;;;;0.40;0.17;;;17.60;63.50;;;;;;4530910;31;20552;-68
2023/01/19 04:57:42;;;;;;;1.20;0.45;;;17.60;63.50;;;;;;4527880;31;20596;-69
2023/01/19 05:00:09;;;;;;;0.50;0.10;;;17.60;63.50;;;;;;4528239;31;20128;-69
2023/01/19 05:02:35;;;;;;;0.65;0.30;;;17.60;63.50;;;;;;4515655;31;20265;-69
2023/01/19 05:05:02;;;;;;;0.40;0.15;;;17.60;63.50;;;;;;4528060;31;20690;-68
2023/01/19 05:07:28;;;;;;;0.68;0.22;;;17.60;63.50;;;;;;4516691;31;20162;-68
2023/01/19 05:09:55;;;;;;;0.60;0.22;;;17.60;63.50;;;;;;4526288;31;20692;-67
2023/01/19 05:12:21;;;;;;;0.40;0.20;;;17.60;63.50;;;;;;4522356;31;20126;-67
2023/01/19 05:14:47;;;;;;;0.20;0.10;;;17.60;63.50;;;;;;4516362;31;20140;-67
2023/01/19 05:17:13;;;;;;;0.20;0.10;;;17.60;63.50;;;;;;4531934;31;20108;-67
2023/01/19 05:19:39;;;;;;;2.33;0.30;;;17.60;63.50;;;;;;4529958;31;20131;-67
2023/01/19 05:22:05;;;;;;;0.88;0.20;;;17.60;63.50;;;;;;4517117;31;20128;-68
2023/01/19 05:24:31;;;;;;;0.40;0.20;;;17.60;63.50;;;;;;4531537;31;20091;-67
2023/01/19 05:26:58;;;;;;;0.68;0.20;;;17.60;63.50;;;;;;4530425;31;20215;-69
2023/01/19 05:29:24;;;;;;;0.52;0.28;;;17.60;63.50;;;;;;4527101;31;20136;-67
2023/01/19 05:31:50;;;;;;;0.32;0.15;;;17.60;64.30;;;;;;4528526;31;20128;-68
2023/01/19 05:34:16;;;;;;;0.50;0.20;;;17.60;63.60;;;;;;4516777;31;20137;-67
2023/01/19 05:36:42;;;;;;;0.45;0.25;;;17.60;63.60;;;;;;4529298;31;20188;-67
2023/01/19 05:39:08;;;;;;;0.35;0.10;;;17.60;63.50;;;;;;4516371;31;20119;-69
2023/01/19 05:41:35;;;;;;;0.50;0.30;;;17.60;63.50;;;;;;4528652;31;20905;-67
2023/01/19 05:44:01;;;;;;;0.45;0.20;;;17.60;63.60;;;;;;4527820;31;20134;-66
2023/01/19 05:46:27;;;;;;;0.50;0.10;;;17.60;63.60;;;;;;4517171;31;20266;-67
2023/01/19 05:48:53;;;;;;;0.20;0.10;;;17.60;63.60;;;;;;4523985;31;20128;-68
2023/01/19 05:51:19;;;;;;;0.60;0.10;;;17.60;63.50;;;;;;4521152;31;20455;-68
2023/01/19 05:53:45;;;;;;;0.38;0.10;;;17.60;63.60;;;;;;4514403;31;20511;-68
2023/01/19 05:56:10;;;;;;;0.20;0.03;;;17.60;63.50;;;;;;4526430;31;20561;-68
2023/01/19 05:58:40;;;;;;;0.15;0.00;;;17.60;63.50;;;;;;4528461;31;20128;-68
2023/01/19 06:01:08;;;;;;;0.32;0.10;;;17.60;63.50;;;;;;4526837;31;20232;-68
2023/01/19 06:03:35;;;;;;;0.85;0.30;;;17.60;63.50;;;;;;4501395;31;20136;-68
2023/01/19 06:06:03;;;;;;;0.30;0.20;;;17.60;63.50;;;;;;4528044;31;20152;-68
2023/01/19 06:08:29;;;;;;;0.40;0.20;;;17.60;63.50;;;;;;4517170;31;20485;-68
2023/01/19 06:10:56;;;;;;;0.35;0.20;;;17.60;63.50;;;;;;4511189;31;20244;-68
2023/01/19 06:13:25;;;;;;;0.50;0.20;;;17.60;63.50;;;;;;4516605;31;20281;-68
2023/01/19 06:15:59;;;;;;;0.20;0.10;;;17.60;63.50;;;;;;4531128;31;20121;-68
2023/01/19 06:18:25;;;;;;;0.30;0.17;;;17.60;63.40;;;;;;4529681;31;20124;-68
2023/01/19 06:20:57;;;;;;;0.35;0.15;;;17.50;63.40;;;;;;4516779;31;20327;-68
2023/01/19 06:23:28;;;;;;;0.38;0.10;;;17.60;63.40;;;;;;4529567;31;20124;-68
2023/01/19 06:25:54;;;;;;;0.65;0.20;;;17.60;63.50;;;;;;4531075;31;20686;-68
2023/01/19 06:28:20;;;;;;;0.20;0.10;;;17.50;63.40;;;;;;4515820;31;20246;-67
2023/01/19 06:30:50;;;;;;;0.20;0.10;;;17.50;63.40;;;;;;4515551;31;20134;-68
2023/01/19 06:33:17;;;;;;;0.20;0.08;;;17.50;63.40;;;;;;4530971;31;20079;-67
2023/01/19 06:35:45;;;;;;;0.55;0.17;;;17.60;63.50;;;;;;4515012;31;20232;-68
2023/01/19 06:38:12;;;;;;;0.60;0.20;;;17.50;63.40;;;;;;4531018;31;20285;-68
2023/01/19 06:40:39;;;;;;;0.68;0.10;;;17.50;63.50;;;;;;4529110;31;20139;-68
2023/01/19 06:43:05;;;;;;;0.25;0.20;;;17.50;63.40;;;;;;4530731;31;20136;-68
2023/01/19 06:45:31;;;;;;;0.52;0.30;;;17.50;63.50;;;;;;4515492;31;20281;-68
2023/01/19 06:47:57;;;;;;;0.40;0.13;;;17.50;63.40;;;;;;4529878;31;20627;-68
2023/01/19 06:50:23;;;;;;;0.40;0.10;;;17.50;63.40;;;;;;4530594;31;20124;-67
2023/01/19 06:52:50;;;;;;;0.98;0.20;;;17.50;63.40;;;;;;4514785;31;20615;-68
2023/01/19 06:55:18;;;;;;;0.68;0.20;;;17.50;63.40;;;;;;4530547;31;20128;-68
2023/01/19 06:57:44;;;;;;;0.40;0.17;;;17.50;63.50;;;;;;4529061;31;20131;-68
2023/01/19 07:00:11;;;;;;;0.75;0.25;;;17.50;63.40;;;;;;4516098;31;20126;-68
2023/01/19 07:02:47;;;;;;;0.28;0.20;;;17.50;63.40;;;;;;4529879;31;20246;-67
2023/01/19 07:05:16;;;;;;;0.50;0.20;;;17.50;63.40;;;;;;4529356;31;20142;-68
2023/01/19 07:07:43;;;;;;;0.57;0.20;;;17.50;63.40;;;;;;4530443;31;20182;-68
2023/01/19 07:10:10;;;;;;;0.20;0.20;;;17.50;64.30;;;;;;4514320;31;20131;-68
2023/01/19 07:12:38;;;;;;;0.50;0.20;;;17.50;63.40;;;;;;4516069;31;20193;-68
2023/01/19 07:15:05;;;;;;;0.75;0.20;;;17.50;63.40;;;;;;4528769;31;20143;-68
2023/01/19 07:17:32;;;;;;;0.20;0.10;;;17.50;63.40;;;;;;4530065;31;20146;-68
2023/01/19 07:19:58;;;;;;;0.43;0.10;;;17.50;63.40;;;;;;4515340;31;20135;-68
2023/01/19 07:22:25;;;;;;;0.77;0.20;;;17.50;63.40;;;;;;4502015;31;20144;-68
2023/01/19 07:24:51;;;;;;;0.13;0.10;;;17.50;63.40;;;;;;4502437;31;20165;-68
2023/01/19 07:27:17;;;;;;;0.63;0.10;;;17.50;63.40;;;;;;4514247;31;20618;-68
2023/01/19 07:29:43;;;;;;;0.60;0.20;;;17.50;63.40;;;;;;4515873;31;20136;-68
2023/01/19 07:32:10;;;;;;;0.80;0.20;;;17.40;63.30;;;;;;4498197;31;20187;-68
2023/01/19 07:34:36;;;;;;;1.23;0.32;;;17.40;63.40;;;;;;4514066;31;20192;-68
2023/01/19 07:37:03;;;;;;;1.33;0.30;;;17.40;63.60;;;;;;4512495;31;20258;-68
2023/01/19 07:39:43;;;;;;;2.50;0.30;;;17.50;63.90;;;;;;4512829;31;20476;-68
2023/01/19 07:42:09;;;;;;;0.77;0.32;;;17.40;64.00;;;;;;4525490;31;20140;-68
2023/01/19 07:44:35;;;;;;;1.35;0.22;;;17.50;63.90;;;;;;4508082;31;20143;-68
2023/01/19 07:47:02;;;;;;;2.58;0.28;;;17.60;63.80;;;;;;4497880;31;20209;-67
2023/01/19 07:49:35;;;;;;;0.77;0.30;;;17.70;63.50;;;;;;4498079;31;20143;-68
2023/01/19 07:52:01;;;;;;;0.90;0.20;;;17.80;63.10;;;;;;4498310;31;20131;-69
2023/01/19 07:54:26;;;;;;;2.65;0.30;;;18.00;62.70;;;;;;4494714;31;20073;-69
2023/01/19 07:56:53;;;;;;;0.93;0.32;;;18.10;62.30;;;;;;4487040;32;20140;-68
2023/01/19 07:59:19;;;;;;;1.58;0.43;;;18.20;62.00;;;;;;4498162;31;20664;-68
2023/01/19 08:01:45;;;;;;;0.38;0.20;;;18.40;61.70;;;;;;4496046;31;20194;-68
2023/01/19 08:04:12;;;;;;;2.92;0.20;;;18.50;61.30;;;;;;4498608;31;20132;-68
2023/01/19 08:06:38;;;;;;;0.80;0.20;;;18.60;61.00;;;;;;4497850;31;20120;-68
2023/01/19 08:09:05;;;;;;;1.40;0.30;;;18.80;60.70;;;;;;4497084;31;20117;-68
2023/01/19 08:11:32;;;;;;;0.65;0.20;;;18.90;60.40;;;;;;4498654;31;20218;-67
2023/01/19 08:14:02;;;;;;;1.48;0.20;;;19.10;60.00;;;;;;4512209;31;20277;-69
2023/01/19 08:16:27;;;;;;;1.80;0.30;;;19.20;59.70;;;;;;4512804;31;20687;-69
2023/01/19 08:18:54;;;;;;;2.00;0.20;;;19.30;59.40;;;;;;4511189;31;20139;-69
2023/01/19 08:21:20;;;;;;;1.17;0.40;;;19.40;59.10;;;;;;4512684;31;20112;-69
2023/01/19 08:23:56;;;;;;;0.38;0.10;;;19.50;59.00;;;;;;4511320;31;20171;-69
2023/01/19 08:26:31;;;;;;;1.70;0.45;;;19.50;58.80;;;;;;4507380;31;20139;-70
2023/01/19 08:28:59;;;;;;;0.82;0.30;;;19.60;58.80;;;;;;4510304;31;20141;-67
2023/01/19 08:31:30;;;;;;;2.28;0.22;;;19.60;58.70;;;;;;4507326;31;20124;-68
2023/01/19 08:33:56;;;;;;;1.45;0.40;;;19.60;58.60;;;;;;4510855;31;20312;-68
2023/01/19 08:36:27;;;;;;;1.08;0.40;;;19.60;58.50;;;;;;4509342;31;20213;-69
2023/01/19 08:38:53;;;;;;;0.85;0.35;;;19.70;58.50;;;;;;4525122;31;20442;-69
2023/01/19 08:41:19;;;;;;;1.63;0.40;;;19.70;58.40;;;;;;4497899;31;20139;-68
2023/01/19 08:43:45;;;;;;;3.10;0.57;;;19.70;58.40;;;;;;4510007;31;20189;-69
2023/01/19 08:46:15;;;;;;;2.42;0.50;;;19.70;58.30;;;;;;4509319;31;20566;-68
2023/01/19 08:48:42;;;;;;;3.67;0.43;;;19.70;58.30;;;;;;4508588;31;20124;-68
2023/01/19 08:51:08;;;;;;;1.33;0.40;;;19.70;58.20;;;;;;4510833;31;20151;-68
2023/01/19 08:53:34;;;;;;;2.47;0.50;;;19.70;59.10;;;;;;4511048;31;20138;-68
2023/01/19 08:56:11;;;;;;;1.85;0.40;;;19.80;58.20;;;;;;4526456;31;20136;-68
2023/01/19 08:58:41;;;;;;;1.90;0.50;;;19.80;58.20;;;;;;4515454;31;20314;-68
2023/01/19 09:01:08;;;;;;;1.85;0.30;;;19.80;58.20;;;;;;4504967;31;20132;-68
2023/01/19 09:03:36;;;;;;;1.92;0.52;;;19.80;58.20;;;;;;4507537;31;20196;-68
2023/01/19 09:06:05;;;;;;;1.80;0.40;;;19.80;58.20;;;;;;4505817;31;20117;-67
2023/01/19 09:08:39;;;;;;;1.67;0.40;;;19.80;58.20;;;;;;4512424;31;20230;-68
2023/01/19 09:11:12;;;;;;;1.42;0.55;;;19.80;58.10;;;;;;4506371;31;20126;-68
2023/01/19 09:13:40;;;;;;;2.83;0.60;;;19.80;58.10;;;;;;4514411;31;20140;-68
2023/01/19 09:16:08;;;;;;;3.30;0.52;;;19.80;58.10;;;;;;4514967;31;20558;-68
2023/01/19 09:18:34;;;;;;;1.88;0.50;;;19.80;58.20;;;;;;4498271;31;20136;-69
2023/01/19 09:21:01;;;;;;;1.83;0.40;;;19.80;58.20;;;;;;4515980;31;20186;-69
2023/01/19 09:23:27;;;;;;;1.17;0.47;;;19.80;58.20;;;;;;4512836;31;20135;-68
2023/01/19 09:26:01;;;;;;;2.05;0.30;;;19.80;58.20;;;;;;4514698;31;20184;-68
2023/01/19 09:28:44;;;;;;;1.42;0.60;;;19.90;58.40;;;;;;4514392;31;20224;-68
2023/01/19 09:31:10;;;;;;;1.27;0.43;;;19.90;58.30;;;;;;4513530;31;20181;-68
2023/01/19 09:33:36;;;;;;;2.15;0.50;;;19.90;58.30;;;;;;4529701;31;20136;-68
2023/01/19 09:36:04;;;;;;;2.67;0.50;;;19.90;58.30;;;;;;4528770;31;20147;-68
2023/01/19 09:38:31;;;;;;;1.70;0.50;;;20.00;58.40;;;;;;4516920;31;20136;-68
2023/01/19 09:40:58;;;;;;;1.92;0.60;;;20.00;58.40;;;;;;4528592;31;20535;-68
2023/01/19 09:43:40;;;;;;;1.35;0.43;;;19.90;58.30;;;;;;4530641;31;20224;-68
2023/01/19 09:46:15;;;;;;;3.28;0.63;;;20.00;58.40;;;;;;4519435;31;20138;-67
2023/01/19 09:48:55;;;;;;;0.85;0.30;;;19.90;58.30;;;;;;4516557;31;20124;-68
2023/01/19 09:51:25;;;;;;;2.58;0.40;;;20.00;58.30;;;;;;4517771;31;20303;-68
2023/01/19 09:54:18;;;;;;;3.78;0.60;;;20.00;58.30;;;;;;4516584;31;20134;-68
2023/01/19 09:56:46;;;;;;;1.38;0.57;;;20.00;58.30;;;;;;4524705;31;20120;-68
2023/01/19 09:59:29;;;;;;;2.63;0.65;;;19.90;58.20;;;;;;4528690;31;20198;-66
2023/01/19 10:02:33;;;;;;;2.95;0.70;;;20.00;58.20;;;;;;4522168;31;20569;-68
2023/01/19 10:05:11;;;;;;;2.97;0.70;;;20.00;58.30;;;;;;4520679;31;20566;-69
2023/01/19 10:08:12;;;;;;;2.33;0.60;;;20.00;58.30;;;;;;4530041;31;20128;-69
2023/01/19 10:10:41;;;;;;;4.20;0.57;;;20.00;58.40;;;;;;4527107;31;20132;-70
2023/01/19 10:13:17;;;;;;;1.75;0.70;;;20.00;58.40;;;;;;4527457;31;20271;-68
2023/01/19 10:15:52;;;;;;;3.33;0.57;;;20.00;58.50;;;;;;4528753;31;20155;-68
2023/01/19 10:18:34;;;;;;;2.55;0.60;;;20.00;58.50;;;;;;4528015;31;20140;-68
2023/01/19 10:21:11;;;;;;;3.30;0.50;;;20.10;58.60;;;;;;4520330;31;20151;-69
2023/01/19 10:24:03;;;;;;;2.35;0.50;;;20.00;58.60;;;;;;4519196;31;20818;-69
2023/01/19 10:26:41;;;;;;;3.33;0.75;;;20.00;58.60;;;;;;4517308;31;20120;-69
2023/01/19 10:29:19;;;;;;;1.95;0.55;;;20.00;58.70;;;;;;4523307;31;20128;-67
2023/01/19 10:31:46;;;;;;;2.45;0.60;;;20.00;58.70;;;;;;4507616;31;20187;-68
2023/01/19 10:34:17;;;;;;;2.08;0.63;;;20.00;58.70;;;;;;4527205;31;20132;-68
2023/01/19 10:36:45;;;;;;;5.57;0.60;;;20.00;58.90;;;;;;4515807;31;20143;-67
2023/01/19 10:39:17;;;;;;;5.05;0.95;;;20.00;58.70;;;;;;4518555;31;20532;-68
2023/01/19 10:41:45;;;;;;;4.95;0.70;;;20.00;58.20;;;;;;4512718;31;20199;-68
2023/01/19 10:44:11;;;;;;;4.20;0.70;;;20.00;58.10;;;;;;4526426;31;20149;-68
2023/01/19 10:46:42;;;;;;;3.42;0.70;;;20.00;58.20;;;;;;4529158;31;20197;-68
2023/01/19 10:49:23;;;;;;;2.08;0.55;;;19.90;58.10;;;;;;4527810;31;20148;-68
2023/01/19 10:51:49;;;;;;;2.38;0.60;;;20.00;58.20;;;;;;4529800;31;20128;-67
2023/01/19 10:54:16;;;;;;;1.63;0.65;;;20.00;58.20;;;;;;4528147;31;20135;-68
2023/01/19 10:56:42;;;;;;;4.30;0.80;;;20.00;58.00;;;;;;4525684;31;20253;-68
2023/01/19 10:59:28;;;;;;;2.08;0.60;;;20.00;58.10;;;;;;4528300;31;20164;-68
2023/01/19 11:02:13;;;;;;;5.88;0.90;;;20.00;58.20;;;;;;4511140;31;20128;-68
2023/01/19 11:04:40;;;;;;;3.08;0.73;;;20.00;58.30;;;;;;4514726;31;20232;-68
2023/01/19 11:07:33;;;;;;;3.60;0.82;;;20.00;58.30;;;;;;4528544;31;20136;-67
2023/01/19 11:10:32;;;;;;;4.53;0.73;;;20.00;58.40;;;;;;4512394;31;20154;-68
2023/01/19 11:13:02;;;;;;;2.83;0.70;;;20.00;58.40;;;;;;4526248;31;20604;-67
2023/01/19 11:15:35;;;;;;;1.77;0.57;;;20.10;58.60;;;;;;4514480;31;20201;-67
2023/01/19 11:18:03;;;;;;;1.95;0.40;;;20.00;58.30;;;;;;4512878;31;20155;-68
2023/01/19 11:20:42;;;;;;;1.55;0.55;;;20.10;58.30;;;;;;4526640;31;20640;-68
2023/01/19 11:23:41;;;;;;;1.35;0.60;;;20.10;58.40;;;;;;4526817;31;20138;-67
2023/01/19 11:26:39;;;;;;;2.50;0.90;;;20.10;58.50;;;;;;4520423;31;20128;-68
2023/01/19 11:29:20;;;;;;;2.03;0.65;;;20.10;58.50;;;;;;4527758;31;20617;-68
2023/01/19 11:31:46;;;;;;;1.77;0.40;;;20.10;58.30;;;;;;4514029;31;20128;-67
2023/01/19 11:34:36;;;;;;;2.83;0.75;;;20.10;58.30;;;;;;4515804;31;20132;-67
2023/01/19 11:37:18;;;;;;;3.75;0.65;;;20.10;58.40;;;;;;4502839;31;20139;-68
2023/01/19 11:39:49;;;;;;;2.97;0.80;;;20.10;58.40;;;;;;4503737;31;20124;-68
2023/01/19 11:42:17;;;;;;;4.68;0.52;;;20.10;58.30;;;;;;4079082;31;10000571;-67
2023/01/19 11:45:13;;;;;;;1.92;0.60;;;20.10;58.30;;;;;;4456304;31;20168;-67
2023/01/19 11:47:44;;;;;;;1.73;0.40;;;20.10;58.30;;;;;;4469062;31;20129;-68
2023/01/19 11:50:27;;;;;;;1.77;0.70;;;20.10;58.30;;;;;;4465639;32;20091;-68
2023/01/19 11:53:23;;;;;;;4.10;0.50;;;20.10;58.30;;;;;;4444861;32;20222;-69
2023/01/19 11:56:12;;;;;;;0.88;0.30;;;20.10;58.30;;;;;;4475384;32;20159;-69
2023/01/19 11:58:46;;;;;;;2.53;0.50;;;20.10;58.30;;;;;;4481917;32;20546;-68
2023/01/19 12:01:32;;;;;;;3.20;0.65;;;20.10;58.30;;;;;;4483916;32;20129;-70
2023/01/19 12:04:10;;;;;;;1.92;0.60;;;20.20;58.40;;;;;;4490415;32;20113;-70
2023/01/19 12:06:47;;;;;;;2.72;0.80;;;20.20;58.40;;;;;;4481762;32;20664;-70
2023/01/19 12:09:46;;;;;;;5.18;0.77;;;20.20;58.30;;;;;;4472968;32;20140;-69
2023/01/19 12:12:34;;;;;;;3.08;0.60;;;20.20;58.40;;;;;;4503638;31;20140;-70
2023/01/19 12:15:25;;;;;;;2.42;0.60;;;20.20;58.40;;;;;;4481201;32;20219;-68
2023/01/19 12:18:23;;;;;;;0.88;0.30;;;20.20;58.40;;;;;;4483664;32;20143;-69
2023/01/19 12:20:53;;;;;;;3.35;0.60;;;20.20;58.50;;;;;;4480827;32;20136;-70
2023/01/19 12:23:38;;;;;;;1.92;0.50;;;20.20;58.50;;;;;;4491653;32;20156;-70
2023/01/19 12:26:35;;;;;;;2.50;0.45;;;20.20;58.60;;;;;;4496149;32;20218;-69
2023/01/19 12:29:25;;;;;;;2.83;0.70;;;20.20;58.60;;;;;;4487831;31;20168;-70
2023/01/19 12:32:15;;;;;;;2.90;0.65;;;20.20;58.60;;;;;;4478983;31;20125;-69
2023/01/19 12:35:01;;;;;;;2.08;0.70;;;20.20;58.60;;;;;;4496920;31;20754;-69
2023/01/19 12:37:42;;;;;;;3.92;0.60;;;20.20;58.60;;;;;;4475691;31;20127;-70
2023/01/19 12:40:23;;;;;;;2.47;0.45;;;20.20;58.70;;;;;;4494335;31;20222;-69
2023/01/19 12:43:04;;;;;;;2.15;0.50;;;20.20;58.70;;;;;;4495705;31;20162;-69
2023/01/19 12:45:36;;;;;;;1.98;0.52;;;20.20;58.80;;;;;;4493140;31;20142;-69
2023/01/19 12:48:04;;;;;;;4.20;0.60;;;20.20;58.80;;;;;;4482582;31;20129;-68
2023/01/19 12:50:36;;;;;;;2.95;0.70;;;20.20;58.80;;;;;;4481333;31;20140;-73
2023/01/19 12:53:13;;;;;;;2.03;0.60;;;20.20;58.70;;;;;;4495425;31;20140;-70
2023/01/19 12:55:45;;;;;;;4.30;0.52;;;20.30;59.80;;;;;;4498520;31;20125;-70
2023/01/19 12:58:24;;;;;;;4.38;0.70;;;20.20;58.90;;;;;;4485544;31;20125;-70
2023/01/19 13:01:18;;;;;;;3.65;0.68;;;20.30;59.10;;;;;;4488688;31;20132;-71
2023/01/19 13:04:07;;;;;;;1.70;0.47;;;20.30;59.10;;;;;;4489058;31;20625;-72
2023/01/19 13:06:48;;;;;;;6.88;0.40;;;20.30;59.20;;;;;;4494808;31;20526;-70
2023/01/19 13:09:30;;;;;;;2.20;0.70;;;20.30;59.30;;;;;;4497314;31;20771;-69
2023/01/19 13:12:14;;;;;;;1.75;0.55;;;20.30;59.40;;;;;;4496665;31;20600;-68
2023/01/19 13:14:40;;;;;;;;;;;20.30;59.40;;;;;;4495349;31;20209;-69
2023/01/19 13:17:29;;;;;;;2.47;0.55;;;20.30;59.50;;;;;;4492905;31;20053;-70